Time;durP1;ratioP1;P1;durP2;ratioP2;P2;SDS_P1;SDS_P2;PMS_P1;PMS_P2;Temp;Humidity;BMP_temperature;BMP_pressure;BME280_temperature;BME280_humidity;BME280_pressure;Samples;Min_cycle;Max_cycle;Signal;HPM_P1;HPM_P2
2021/06/15 00:00:39;;;;;;;1.55;1.02;;;;;;;17.35;59.42;96720.97;5114703;28;20039;-75
2021/06/15 00:03:05;;;;;;;1.25;1.15;;;;;;;17.31;59.52;96717.22;5114672;28;20048;-75
2021/06/15 00:05:42;;;;;;;2.35;1.13;;;;;;;17.25;59.71;96719.03;5114952;28;20043;-75
2021/06/15 00:08:08;;;;;;;2.60;1.30;;;;;;;17.23;59.86;96715.06;5114871;28;20047;-75
2021/06/15 00:10:34;;;;;;;1.48;1.38;;;;;;;17.20;59.99;96723.53;5113441;28;20035;-76
2021/06/15 00:13:01;;;;;;;1.50;1.40;;;;;;;17.17;60.04;96710.75;5114872;27;20043;-75
2021/06/15 00:15:27;;;;;;;1.27;1.08;;;;;;;17.15;60.13;96718.94;5114568;28;20038;-75
2021/06/15 00:17:54;;;;;;;1.23;1.00;;;;;;;17.14;59.98;96722.66;5114778;28;20046;-74
2021/06/15 00:20:21;;;;;;;1.67;1.42;;;;;;;17.12;60.08;96716.81;5114329;28;20039;-75
2021/06/15 00:22:47;;;;;;;1.48;1.23;;;;;;;17.11;60.19;96717.06;5114832;28;20047;-74
2021/06/15 00:25:15;;;;;;;1.30;1.20;;;;;;;17.07;60.28;96710.66;5114422;28;20034;-77
2021/06/15 00:27:41;;;;;;;1.27;1.10;;;;;;;17.04;60.26;96711.97;5114225;28;20093;-77
2021/06/15 00:30:10;;;;;;;1.25;1.10;;;;;;;16.97;60.46;96714.84;5113687;28;20464;-77
2021/06/15 00:32:36;;;;;;;1.17;1.10;;;;;;;16.94;60.59;96706.59;5113258;28;20055;-77
2021/06/15 00:35:03;;;;;;;1.45;1.35;;;;;;;16.88;60.73;96702.31;5114684;28;20066;-75
2021/06/15 00:37:30;;;;;;;1.40;1.13;;;;;;;16.81;60.86;96697.22;5114211;28;20406;-75
2021/06/15 00:39:56;;;;;;;1.17;1.17;;;;;;;16.79;60.89;96697.44;5113776;28;20027;-75
2021/06/15 00:42:23;;;;;;;1.10;1.00;;;;;;;16.74;61.10;96702.69;5114416;28;20044;-76
2021/06/15 00:44:50;;;;;;;1.67;1.50;;;;;;;16.69;61.25;96692.03;5113823;28;20032;-76
2021/06/15 00:47:17;;;;;;;1.67;0.98;;;;;;;16.64;61.26;96698.09;5114310;28;20036;-76
2021/06/15 00:49:43;;;;;;;1.88;1.15;;;;;;;16.60;61.41;96690.91;5113963;28;20047;-75
2021/06/15 00:52:10;;;;;;;1.30;1.20;;;;;;;16.56;61.51;96697.75;5113805;28;20035;-75
2021/06/15 00:54:36;;;;;;;2.45;1.30;;;;;;;16.50;61.53;96688.94;5112766;28;20038;-75
2021/06/15 00:57:03;;;;;;;2.08;1.20;;;;;;;16.44;61.79;96687.28;5113971;28;20395;-75
2021/06/15 00:59:29;;;;;;;1.98;1.55;;;;;;;16.39;61.99;96689.88;5113992;28;20036;-76
2021/06/15 01:01:56;;;;;;;2.17;1.05;;;;;;;16.36;62.12;96691.19;5113832;28;20054;-75
2021/06/15 01:04:22;;;;;;;2.72;1.40;;;;;;;16.33;62.15;96686.38;5113640;28;20043;-75
2021/06/15 01:06:54;;;;;;;2.05;1.20;;;;;;;16.31;62.44;96691.13;5114002;28;20411;-76
2021/06/15 01:09:43;;;;;;;1.02;1.02;;;;;;;16.25;62.87;96692.13;5113487;28;20039;-75
2021/06/15 01:12:47;;;;;;;1.88;1.10;;;;;;;16.19;62.99;96688.63;5105710;28;20115;-75
2021/06/15 01:15:27;;;;;;;1.73;1.40;;;;;;;16.14;63.32;96691.19;5103062;28;20051;-76
2021/06/15 01:18:02;;;;;;;1.48;1.38;;;;;;;16.11;62.68;96693.56;5114141;28;20019;-75
2021/06/15 01:20:52;;;;;;;1.35;1.10;;;;;;;16.08;62.92;96691.41;5113263;28;20070;-75
2021/06/15 01:23:46;;;;;;;1.50;1.40;;;;;;;16.08;63.10;96686.09;5113204;28;20388;-75
2021/06/15 01:26:46;;;;;;;1.27;1.17;;;;;;;16.03;63.44;96689.50;5100162;28;20028;-75
2021/06/15 01:29:16;;;;;;;1.40;1.27;;;;;;;16.00;62.99;96689.97;5113689;28;20475;-75
2021/06/15 01:31:49;;;;;;;2.10;1.48;;;;;;;15.98;63.27;96682.31;5113446;28;20031;-75
2021/06/15 01:34:29;;;;;;;1.30;1.30;;;;;;;15.94;63.36;96681.19;5113292;28;20052;-75
2021/06/15 01:37:12;;;;;;;1.50;1.40;;;;;;;15.90;64.30;96676.66;5113686;28;20035;-75
2021/06/15 01:39:47;;;;;;;1.75;1.60;;;;;;;15.85;63.84;96684.50;5117302;28;20395;-76
2021/06/15 01:42:35;;;;;;;1.40;1.30;;;;;;;15.81;64.06;96685.00;5117811;28;20039;-75
2021/06/15 01:45:04;;;;;;;1.30;1.10;;;;;;;15.76;64.12;96681.47;5117938;28;20038;-75
2021/06/15 01:47:30;;;;;;;1.30;1.30;;;;;;;15.71;63.88;96684.03;5117516;28;20031;-75
2021/06/15 01:50:00;;;;;;;1.67;1.50;;;;;;;15.67;64.04;96681.09;5117556;28;20047;-75
2021/06/15 01:52:32;;;;;;;1.50;1.40;;;;;;;15.64;64.30;96678.91;5117719;27;20045;-75
2021/06/15 01:54:59;;;;;;;1.40;1.30;;;;;;;15.61;64.37;96680.19;5117296;28;20035;-75
2021/06/15 01:57:28;;;;;;;1.60;1.50;;;;;;;15.57;64.56;96678.28;5117121;28;20403;-76
2021/06/15 01:59:58;;;;;;;1.30;1.30;;;;;;;15.54;64.73;96676.13;5117489;27;20063;-75
2021/06/15 02:02:26;;;;;;;1.42;1.20;;;;;;;15.51;64.71;96682.69;5117054;28;20474;-75
2021/06/15 02:04:54;;;;;;;1.42;1.33;;;;;;;15.48;64.80;96674.47;5117021;28;20051;-75
2021/06/15 02:07:25;;;;;;;1.60;1.50;;;;;;;15.46;65.03;96676.56;5117176;27;20047;-75
2021/06/15 02:09:56;;;;;;;1.50;1.40;;;;;;;15.43;65.04;96681.28;5116991;28;20032;-76
2021/06/15 02:12:28;;;;;;;1.60;1.50;;;;;;;15.40;65.42;96684.41;5117540;27;20451;-75
2021/06/15 02:14:56;;;;;;;1.63;1.50;;;;;;;15.35;65.26;96671.13;5116601;28;20027;-75
2021/06/15 02:17:25;;;;;;;1.40;1.30;;;;;;;15.32;65.35;96668.16;5117013;28;20043;-76
2021/06/15 02:19:52;;;;;;;1.30;1.20;;;;;;;15.28;65.50;96670.47;5108023;28;20031;-75
2021/06/15 02:22:20;;;;;;;1.52;1.27;;;;;;;15.25;65.59;96662.25;5117113;27;20448;-75
2021/06/15 02:24:53;;;;;;;1.60;1.50;;;;;;;15.20;66.16;96663.78;5116688;28;20486;-75
2021/06/15 02:27:22;;;;;;;1.85;1.75;;;;;;;15.17;65.86;96661.63;5116976;28;20472;-75
2021/06/15 02:29:51;;;;;;;1.75;1.65;;;;;;;15.14;65.90;96662.09;5116454;28;20023;-75
2021/06/15 02:32:23;;;;;;;1.33;1.23;;;;;;;15.11;66.38;96661.78;5116257;28;20035;-75
2021/06/15 02:34:50;;;;;;;1.45;1.35;;;;;;;15.09;66.25;96655.94;5116670;27;20066;-75
2021/06/15 02:37:23;;;;;;;1.65;1.50;;;;;;;15.06;66.54;96657.22;5116432;28;20070;-75
2021/06/15 02:39:50;;;;;;;1.45;1.40;;;;;;;15.03;66.41;96665.63;5116494;28;20042;-75
2021/06/15 02:42:18;;;;;;;1.30;1.30;;;;;;;15.00;66.48;96660.84;5116352;28;20422;-76
2021/06/15 02:44:47;;;;;;;1.67;1.52;;;;;;;14.95;66.55;96658.09;5116257;28;20035;-76
2021/06/15 02:47:14;;;;;;;1.92;1.70;;;;;;;14.91;66.70;96657.78;5115854;28;20105;-76
2021/06/15 02:49:50;;;;;;;2.28;1.80;;;;;;;14.90;67.21;96660.66;5114859;28;20032;-76
2021/06/15 02:52:33;;;;;;;1.80;1.70;;;;;;;14.86;66.96;96657.69;5115013;28;20062;-76
2021/06/15 02:55:20;;;;;;;2.10;1.65;;;;;;;14.82;67.75;96667.97;5116276;28;20383;-75
2021/06/15 02:57:47;;;;;;;1.45;1.33;;;;;;;14.79;67.11;96662.34;5115965;28;20047;-75
2021/06/15 03:00:14;;;;;;;1.38;1.27;;;;;;;14.78;67.24;96656.28;5115829;28;20039;-75
2021/06/15 03:02:40;;;;;;;1.88;1.30;;;;;;;14.77;67.14;96665.22;5115351;28;20044;-75
2021/06/15 03:05:14;;;;;;;1.98;1.60;;;;;;;14.74;67.22;96662.25;5115844;28;20038;-75
2021/06/15 03:07:41;;;;;;;2.77;2.10;;;;;;;14.69;67.30;96670.88;5115977;27;20077;-75
2021/06/15 03:10:08;;;;;;;1.73;1.63;;;;;;;14.68;67.41;96673.75;5115627;28;20289;-75
2021/06/15 03:13:02;;;;;;;1.75;1.65;;;;;;;14.66;67.70;96681.09;5115773;28;20058;-75
2021/06/15 03:15:40;;;;;;;3.00;1.52;;;;;;;14.61;67.55;96680.00;5107053;28;20415;-75
2021/06/15 03:18:28;;;;;;;1.52;1.42;;;;;;;14.57;67.70;96670.97;5115543;28;20035;-74
2021/06/15 03:20:57;;;;;;;1.30;1.30;;;;;;;14.55;67.69;96680.09;5115879;28;20033;-76
2021/06/15 03:24:03;;;;;;;1.50;1.42;;;;;;;14.51;68.64;96674.53;5115339;28;20031;-76
2021/06/15 03:26:40;;;;;;;1.65;1.45;;;;;;;14.48;68.41;96676.81;5115582;28;20487;-75
2021/06/15 03:29:10;;;;;;;1.40;1.30;;;;;;;14.48;68.17;96672.34;5100495;28;20043;-74
2021/06/15 03:31:40;;;;;;;1.45;1.35;;;;;;;14.47;68.02;96665.47;5115598;28;20036;-74
2021/06/15 03:34:09;;;;;;;1.75;1.60;;;;;;;14.47;68.11;96667.28;5114767;28;20047;-74
2021/06/15 03:36:38;;;;;;;1.50;1.40;;;;;;;14.46;68.18;96674.41;5115046;28;20051;-74
2021/06/15 03:39:06;;;;;;;1.65;1.33;;;;;;;14.45;68.09;96672.81;5115194;28;20050;-74
2021/06/15 03:41:34;;;;;;;1.60;1.50;;;;;;;14.45;68.14;96675.47;5115146;28;20040;-75
2021/06/15 03:44:03;;;;;;;1.52;1.42;;;;;;;14.46;68.19;96677.06;5114193;28;20042;-74
2021/06/15 03:46:32;;;;;;;1.65;1.55;;;;;;;14.45;68.10;96675.47;5115183;28;20028;-74
2021/06/15 03:49:01;;;;;;;1.70;1.60;;;;;;;14.44;68.01;96676.47;5115086;28;20038;-76
2021/06/15 03:51:33;;;;;;;1.60;1.35;;;;;;;14.41;68.46;96676.97;5115019;28;20042;-74
2021/06/15 03:54:08;;;;;;;2.10;1.90;;;;;;;14.39;68.40;96679.03;5115030;28;20054;-74
2021/06/15 03:56:37;;;;;;;1.60;1.50;;;;;;;14.36;68.42;96684.78;5114189;28;20036;-74
2021/06/15 03:59:07;;;;;;;1.50;1.40;;;;;;;14.33;68.50;96677.34;5115316;28;20034;-74
2021/06/15 04:01:35;;;;;;;2.70;1.58;;;;;;;14.31;68.62;96682.06;5114210;28;20038;-75
2021/06/15 04:04:05;;;;;;;1.90;1.80;;;;;;;14.27;68.60;96684.34;5114305;28;20066;-74
2021/06/15 04:06:35;;;;;;;1.63;1.52;;;;;;;14.27;68.76;96691.47;5114730;28;20055;-75
2021/06/15 04:09:04;;;;;;;1.65;1.55;;;;;;;14.27;68.83;96679.09;5114715;28;20395;-76
2021/06/15 04:11:33;;;;;;;1.70;1.60;;;;;;;14.30;68.95;96683.06;5114178;28;20050;-75
2021/06/15 04:14:01;;;;;;;1.98;1.88;;;;;;;14.30;69.17;96683.91;5102493;28;20489;-74
2021/06/15 04:16:27;;;;;;;1.58;1.48;;;;;;;14.32;68.92;96684.47;5114432;28;20031;-75
2021/06/15 04:19:00;;;;;;;1.55;1.45;;;;;;;14.34;69.34;96686.84;5114481;28;20464;-75
2021/06/15 04:21:30;;;;;;;2.60;1.90;;;;;;;14.38;69.14;96677.44;5114388;28;20039;-74
2021/06/15 04:24:02;;;;;;;1.83;1.70;;;;;;;14.44;69.70;96683.59;5114295;28;20091;-74
2021/06/15 04:26:33;;;;;;;1.70;1.60;;;;;;;14.54;69.47;96691.72;5114490;28;20043;-75
2021/06/15 04:29:05;;;;;;;1.85;1.75;;;;;;;14.70;69.32;96685.69;5114435;28;20040;-75
2021/06/15 04:31:34;;;;;;;1.70;1.45;;;;;;;14.89;69.17;96688.09;5114345;27;20043;-74
2021/06/15 04:34:02;;;;;;;1.75;1.65;;;;;;;15.12;69.25;96687.97;5114169;28;20048;-75
2021/06/15 04:36:32;;;;;;;1.80;1.70;;;;;;;15.39;69.08;96695.22;5114454;28;20050;-76
2021/06/15 04:39:02;;;;;;;1.98;1.40;;;;;;;15.62;68.65;96687.09;5099714;28;20511;-76
2021/06/15 04:41:41;;;;;;;1.90;1.80;;;;;;;15.92;67.86;96693.06;5113979;28;20047;-76
2021/06/15 04:44:15;;;;;;;2.58;1.88;;;;;;;16.10;67.20;96686.66;5113397;28;20043;-76
2021/06/15 04:46:41;;;;;;;1.80;1.70;;;;;;;16.27;67.25;96695.31;5112808;28;20043;-76
2021/06/15 04:49:22;;;;;;;1.65;1.52;;;;;;;16.46;66.43;96695.78;5114261;28;20047;-76
2021/06/15 04:51:52;;;;;;;2.63;1.85;;;;;;;16.70;66.54;96696.28;5104358;28;20032;-76
2021/06/15 04:54:20;;;;;;;2.80;1.83;;;;;;;16.95;66.01;96694.97;5114091;28;20371;-76
2021/06/15 04:56:49;;;;;;;1.95;1.85;;;;;;;17.18;65.63;96699.13;5113988;28;20044;-75
2021/06/15 04:59:20;;;;;;;1.58;1.48;;;;;;;17.40;64.18;96697.13;5113655;28;20035;-76
2021/06/15 05:01:48;;;;;;;2.05;1.95;;;;;;;17.61;64.52;96698.06;5113740;28;20031;-75
2021/06/15 05:04:14;;;;;;;1.90;1.80;;;;;;;17.82;64.09;96696.34;5113828;28;20027;-75
2021/06/15 05:06:42;;;;;;;1.90;1.80;;;;;;;18.00;63.17;96707.59;5113549;28;20459;-77
2021/06/15 05:09:10;;;;;;;2.30;1.83;;;;;;;18.10;62.61;96699.69;5113782;28;20510;-77
2021/06/15 05:11:37;;;;;;;2.90;2.00;;;;;;;18.20;62.20;96701.56;5113682;28;20066;-76
2021/06/15 05:14:08;;;;;;;2.45;1.60;;;;;;;18.31;61.02;96707.69;5112791;28;20036;-75
2021/06/15 05:16:37;;;;;;;1.98;1.70;;;;;;;18.38;61.01;96703.75;5097900;28;20038;-75
2021/06/15 05:19:04;;;;;;;2.10;2.00;;;;;;;18.36;60.49;96700.56;5113782;28;20038;-76
2021/06/15 05:21:51;;;;;;;1.63;1.50;;;;;;;18.29;59.62;96688.56;5113370;28;20477;-75
2021/06/15 05:24:40;;;;;;;1.95;1.85;;;;;;;18.31;59.22;96692.59;5113545;28;20047;-74
2021/06/15 05:27:06;;;;;;;2.03;1.92;;;;;;;18.42;60.33;96699.50;5113678;28;20039;-74
2021/06/15 05:29:32;;;;;;;1.65;1.55;;;;;;;18.70;60.05;96700.09;5112493;28;20043;-74
2021/06/15 05:32:00;;;;;;;2.40;1.77;;;;;;;18.91;59.54;96700.16;5114026;28;20031;-74
2021/06/15 05:34:26;;;;;;;1.70;1.60;;;;;;;19.21;59.09;96694.84;5113179;28;20468;-75
2021/06/15 05:36:52;;;;;;;1.88;1.77;;;;;;;19.55;58.43;96691.63;5113921;28;20054;-75
2021/06/15 05:39:18;;;;;;;1.60;1.45;;;;;;;19.72;57.52;96685.19;5113450;28;20471;-75
2021/06/15 05:41:45;;;;;;;1.55;1.45;;;;;;;19.96;57.36;96677.41;5113343;28;20031;-75
2021/06/15 05:44:11;;;;;;;2.63;1.40;;;;;;;20.23;56.69;96669.84;5113396;28;20046;-75
2021/06/15 05:46:37;;;;;;;1.50;1.40;;;;;;;20.55;55.85;96667.81;5113234;28;20106;-75
2021/06/15 05:49:03;;;;;;;1.88;1.77;;;;;;;20.78;55.08;96667.13;5111967;28;20066;-75
2021/06/15 05:51:29;;;;;;;1.48;1.38;;;;;;;20.88;54.27;96661.72;5113467;28;20044;-75
2021/06/15 05:53:59;;;;;;;1.52;1.42;;;;;;;20.97;53.89;96661.91;5112453;28;20056;-75
2021/06/15 05:56:25;;;;;;;1.30;1.30;;;;;;;21.21;53.49;96650.53;5113076;28;20042;-75
2021/06/15 05:58:51;;;;;;;1.63;1.52;;;;;;;21.49;53.00;96648.94;5113930;28;20031;-76
2021/06/15 06:01:17;;;;;;;1.70;1.60;;;;;;;21.69;52.62;96650.59;5111419;28;20051;-74
2021/06/15 06:03:48;;;;;;;1.40;1.30;;;;;;;21.87;51.93;96641.06;5113009;28;20035;-75
2021/06/15 06:08:59;;;;;;;2.65;1.55;;;;;;;22.14;51.19;96628.97;5113032;28;20442;-75
2021/06/15 06:11:25;;;;;;;1.55;1.42;;;;;;;22.21;50.65;96634.75;5113548;28;20043;-75
2021/06/15 06:13:53;;;;;;;1.58;1.45;;;;;;;22.20;50.42;96635.84;5112998;28;20036;-75
2021/06/15 06:16:20;;;;;;;2.70;1.33;;;;;;;22.36;50.51;96639.91;5102488;28;20037;-75
2021/06/15 06:18:46;;;;;;;1.52;1.42;;;;;;;22.63;50.29;96638.44;5113193;28;20379;-75
2021/06/15 06:21:13;;;;;;;1.65;1.55;;;;;;;22.84;50.05;96631.69;5112937;28;20047;-75
2021/06/15 06:23:39;;;;;;;2.35;1.50;;;;;;;23.05;49.64;96637.53;5113342;28;20047;-75
2021/06/15 06:26:06;;;;;;;2.47;1.50;;;;;;;23.27;49.16;96634.22;5116753;27;20036;-74
2021/06/15 06:28:32;;;;;;;1.75;1.65;;;;;;;23.47;48.94;96637.59;5116619;28;20479;-75
2021/06/15 06:30:59;;;;;;;1.95;1.40;;;;;;;23.49;47.98;96636.22;5116646;28;20042;-75
2021/06/15 06:33:25;;;;;;;2.13;1.85;;;;;;;23.32;47.51;96644.03;5116800;28;20473;-74
2021/06/15 06:35:51;;;;;;;1.60;1.50;;;;;;;23.28;47.47;96653.75;5115995;28;20054;-74
2021/06/15 06:38:17;;;;;;;1.70;1.60;;;;;;;23.20;47.16;96665.91;5116405;28;20044;-75
2021/06/15 06:40:44;;;;;;;1.38;1.23;;;;;;;23.32;46.76;96657.41;5116158;28;20050;-75
2021/06/15 06:43:10;;;;;;;1.52;1.42;;;;;;;23.58;46.91;96643.56;5115866;28;20043;-75
2021/06/15 06:45:36;;;;;;;2.45;1.48;;;;;;;23.69;46.64;96653.78;5116230;28;20028;-75
2021/06/15 06:48:08;;;;;;;1.85;1.52;;;;;;;23.79;46.34;96652.84;5116461;28;20031;-74
2021/06/15 06:50:35;;;;;;;1.40;1.30;;;;;;;23.84;46.23;96652.72;5115877;27;20395;-75
2021/06/15 06:53:01;;;;;;;1.77;1.40;;;;;;;23.99;46.39;96651.63;5116258;28;20043;-74
2021/06/15 06:55:29;;;;;;;1.33;1.33;;;;;;;24.09;45.99;96642.59;5115908;28;20101;-75
2021/06/15 06:57:56;;;;;;;1.30;1.20;;;;;;;24.23;46.13;96650.59;5116310;28;20043;-75
2021/06/15 07:00:22;;;;;;;2.22;1.40;;;;;;;24.24;45.84;96644.94;5116328;28;20031;-75
2021/06/15 07:02:49;;;;;;;1.40;1.30;;;;;;;24.35;46.12;96639.34;5116085;28;20364;-76
2021/06/15 07:05:16;;;;;;;2.17;1.60;;;;;;;24.58;46.08;96648.25;5116260;28;20470;-77
2021/06/15 07:07:42;;;;;;;2.15;1.40;;;;;;;24.72;46.26;96643.66;5115712;28;20057;-77
2021/06/15 07:10:09;;;;;;;1.83;1.42;;;;;;;24.81;46.17;96649.84;5116045;28;20042;-77
2021/06/15 07:12:35;;;;;;;1.38;1.27;;;;;;;25.07;46.13;96652.72;5115795;28;20031;-75
2021/06/15 07:15:02;;;;;;;1.58;1.48;;;;;;;25.22;46.04;96659.63;5115736;28;20039;-75
2021/06/15 07:17:28;;;;;;;1.98;1.40;;;;;;;25.26;45.85;96655.22;5115621;28;20035;-75
2021/06/15 07:19:55;;;;;;;1.88;1.63;;;;;;;25.23;45.52;96653.16;5115578;28;20387;-75
2021/06/15 07:22:21;;;;;;;1.63;1.52;;;;;;;25.34;45.73;96648.31;5115552;28;20051;-75
2021/06/15 07:24:47;;;;;;;1.55;1.45;;;;;;;25.31;45.55;96651.63;5116037;28;20566;-75
2021/06/15 07:27:13;;;;;;;1.75;1.48;;;;;;;25.45;45.53;96646.16;5115380;28;20051;-75
2021/06/15 07:29:40;;;;;;;2.58;1.55;;;;;;;25.59;45.67;96652.22;5115343;28;20045;-74
2021/06/15 07:32:06;;;;;;;3.42;1.38;;;;;;;25.85;45.23;96641.56;5114028;28;20042;-74
2021/06/15 07:34:33;;;;;;;1.55;1.45;;;;;;;25.89;45.12;96655.19;5115378;28;20074;-75
2021/06/15 07:36:59;;;;;;;1.60;1.50;;;;;;;26.01;45.04;96649.22;5114138;28;20067;-75
2021/06/15 07:39:25;;;;;;;1.40;1.30;;;;;;;26.11;44.46;96657.00;5115373;28;20056;-75
2021/06/15 07:41:52;;;;;;;1.05;1.05;;;;;;;26.05;44.34;96650.97;5115621;28;20046;-74
2021/06/15 07:44:18;;;;;;;2.53;1.27;;;;;;;26.16;43.87;96640.72;5114951;28;20044;-74
2021/06/15 07:46:44;;;;;;;1.95;1.42;;;;;;;26.25;43.65;96654.97;5115393;28;20360;-75
2021/06/15 07:49:10;;;;;;;4.13;1.13;;;;;;;26.21;43.90;96655.91;5115064;28;20498;-75
2021/06/15 07:51:37;;;;;;;1.38;1.10;;;;;;;26.36;43.88;96647.38;5115143;28;20040;-74
2021/06/15 07:54:05;;;;;;;1.48;1.30;;;;;;;26.56;43.37;96654.03;5113880;28;20062;-74
2021/06/15 07:56:31;;;;;;;1.05;1.05;;;;;;;26.61;43.28;96653.91;5114987;28;20035;-74
2021/06/15 07:58:57;;;;;;;1.60;1.50;;;;;;;26.62;42.86;96654.69;5114927;28;20417;-75
2021/06/15 08:01:24;;;;;;;3.80;1.30;;;;;;;26.61;42.60;96653.91;5114961;28;20036;-75
2021/06/15 08:03:50;;;;;;;1.77;1.20;;;;;;;26.79;42.65;96652.00;5114094;28;20058;-74
2021/06/15 08:06:16;;;;;;;3.20;1.27;;;;;;;26.94;42.39;96658.78;5115004;27;20467;-74
2021/06/15 08:08:43;;;;;;;1.88;1.20;;;;;;;27.27;42.18;96650.22;5115435;28;20486;-74
2021/06/15 08:11:09;;;;;;;1.45;1.20;;;;;;;27.58;41.65;96646.47;5114616;28;20036;-74
2021/06/15 08:13:35;;;;;;;1.13;1.02;;;;;;;27.79;41.24;96643.84;5114722;28;20407;-75
2021/06/15 08:16:02;;;;;;;0.98;0.98;;;;;;;27.77;40.68;96644.16;5114707;28;20042;-75
2021/06/15 08:18:28;;;;;;;1.15;1.05;;;;;;;27.67;40.62;96650.69;5113975;28;20035;-74
2021/06/15 08:20:55;;;;;;;1.30;1.20;;;;;;;27.71;40.36;96653.53;5114733;28;20387;-74
2021/06/15 08:23:23;;;;;;;2.90;1.10;;;;;;;27.95;40.00;96653.00;5114360;28;20036;-74
2021/06/15 08:25:50;;;;;;;1.10;0.95;;;;;;;28.17;39.46;96651.13;5114401;28;20045;-74
2021/06/15 08:28:16;;;;;;;1.35;1.02;;;;;;;28.25;38.83;96651.06;5114297;28;20039;-74
2021/06/15 08:30:43;;;;;;;1.13;1.00;;;;;;;28.21;38.68;96655.53;5113591;28;20050;-75
2021/06/15 08:33:10;;;;;;;2.65;1.20;;;;;;;28.30;38.30;96650.84;5114361;28;20472;-75
2021/06/15 08:35:36;;;;;;;3.30;1.13;;;;;;;28.41;37.99;96640.50;5114085;28;20050;-74
2021/06/15 08:38:03;;;;;;;1.13;0.88;;;;;;;28.62;37.61;96635.13;5113759;28;20047;-75
2021/06/15 08:40:30;;;;;;;2.45;0.93;;;;;;;28.63;37.40;96641.28;5114524;28;20043;-74
2021/06/15 08:42:57;;;;;;;2.25;1.00;;;;;;;28.64;37.23;96643.66;5113933;28;20109;-74
2021/06/15 08:45:24;;;;;;;3.63;1.20;;;;;;;28.83;37.17;96651.28;5114060;28;20048;-74
2021/06/15 08:47:52;;;;;;;1.83;1.20;;;;;;;28.93;36.63;96640.06;5113645;28;20062;-74
2021/06/15 08:50:22;;;;;;;1.10;0.98;;;;;;;29.12;36.28;96644.97;5114030;28;20431;-74
2021/06/15 08:52:50;;;;;;;1.67;1.00;;;;;;;29.22;36.15;96651.88;5113839;28;20039;-74
2021/06/15 08:55:18;;;;;;;1.38;1.00;;;;;;;29.27;35.61;96648.16;5113810;28;20042;-74
2021/06/15 08:57:52;;;;;;;0.90;0.82;;;;;;;29.32;34.75;96648.75;5113566;28;20040;-74
2021/06/15 09:00:19;;;;;;;1.23;0.70;;;;;;;29.46;35.16;96644.94;5113819;28;20044;-74
2021/06/15 09:02:46;;;;;;;2.47;0.88;;;;;;;29.43;34.54;96651.81;5113569;28;20037;-74
2021/06/15 09:05:19;;;;;;;0.77;0.68;;;;;;;29.46;34.66;96655.75;5113764;28;20035;-74
2021/06/15 09:08:08;;;;;;;0.98;0.88;;;;;;;29.68;34.92;96643.72;5113805;28;20039;-74
2021/06/15 09:10:41;;;;;;;1.55;0.70;;;;;;;29.84;33.83;96651.97;5113771;28;20035;-74
2021/06/15 09:13:36;;;;;;;0.88;0.85;;;;;;;29.87;34.37;96652.09;5113573;28;20050;-74
2021/06/15 09:16:27;;;;;;;4.68;0.82;;;;;;;29.91;33.59;96649.50;5113740;28;20038;-75
2021/06/15 09:18:57;;;;;;;2.25;0.90;;;;;;;30.00;33.98;96655.56;5103606;28;20039;-74
2021/06/15 09:21:29;;;;;;;2.97;0.88;;;;;;;29.59;31.76;96651.13;5113473;28;20027;-74
2021/06/15 09:24:08;;;;;;;2.38;0.80;;;;;;;29.20;32.90;96666.84;5113418;28;20383;-74
2021/06/15 09:26:57;;;;;;;1.98;1.00;;;;;;;29.21;33.35;96671.09;5113615;28;20460;-74
2021/06/15 09:29:36;;;;;;;3.20;1.08;;;;;;;29.32;34.96;96678.47;5101641;28;20047;-74
2021/06/15 09:32:03;;;;;;;1.73;0.90;;;;;;;29.29;33.07;96676.44;5113464;28;20028;-74
2021/06/15 09:34:30;;;;;;;1.00;0.70;;;;;;;29.27;32.90;96672.47;5113077;28;20062;-74
2021/06/15 09:36:56;;;;;;;2.63;0.85;;;;;;;29.26;32.51;96671.69;5113027;28;20047;-74
2021/06/15 09:39:22;;;;;;;0.60;0.60;;;;;;;29.46;32.79;96675.47;5113304;28;20043;-74
2021/06/15 09:41:50;;;;;;;2.08;1.00;;;;;;;29.58;32.45;96676.59;5113246;28;20043;-74
2021/06/15 09:44:29;;;;;;;2.28;0.70;;;;;;;29.40;31.08;96674.09;5113034;28;20059;-74
2021/06/15 09:46:59;;;;;;;1.25;0.80;;;;;;;29.47;31.80;96676.25;5113586;28;20044;-75
2021/06/15 09:49:41;;;;;;;3.35;1.10;;;;;;;29.36;30.47;96675.91;5113395;28;20023;-74
2021/06/15 09:52:27;;;;;;;2.30;0.88;;;;;;;29.31;30.14;96659.88;5113163;28;20036;-75
2021/06/15 09:54:55;;;;;;;0.98;0.70;;;;;;;29.27;31.37;96673.28;5112927;28;20063;-75
2021/06/15 09:57:25;;;;;;;4.28;0.80;;;;;;;29.41;31.45;96669.47;5113225;28;20035;-74
2021/06/15 10:00:15;;;;;;;1.25;0.80;;;;;;;29.64;31.11;96669.84;5115078;28;20039;-74
2021/06/15 10:02:55;;;;;;;4.03;1.10;;;;;;;29.59;30.55;96668.16;5117386;28;20383;-74
2021/06/15 10:05:30;;;;;;;1.05;0.80;;;;;;;29.55;30.67;96668.03;5117157;28;20040;-74
2021/06/15 10:08:08;;;;;;;3.65;0.85;;;;;;;29.42;29.82;96666.47;5106857;28;20039;-74
2021/06/15 10:10:39;;;;;;;1.00;0.80;;;;;;;29.29;30.46;96671.03;5117012;28;20463;-74
2021/06/15 10:13:06;;;;;;;0.73;0.73;;;;;;;29.48;30.58;96664.31;5117462;28;20032;-74
2021/06/15 10:15:35;;;;;;;4.00;1.00;;;;;;;29.80;30.68;96673.50;5116797;28;20035;-74
2021/06/15 10:18:02;;;;;;;2.03;0.88;;;;;;;30.07;31.17;96680.16;5116813;28;20039;-75
2021/06/15 10:20:31;;;;;;;1.42;0.70;;;;;;;30.18;31.11;96672.38;5102900;28;20031;-74
2021/06/15 10:22:58;;;;;;;1.92;0.60;;;;;;;30.25;31.28;96667.16;5116677;28;20031;-74
2021/06/15 10:25:29;;;;;;;2.60;0.70;;;;;;;30.01;30.98;96673.41;5116311;28;20043;-76
2021/06/15 10:27:57;;;;;;;1.58;0.80;;;;;;;29.79;30.17;96669.22;5116301;28;20443;-74
2021/06/15 10:30:33;;;;;;;0.98;0.63;;;;;;;29.99;29.33;96672.94;5115873;28;20395;-74
2021/06/15 10:33:10;;;;;;;0.88;0.80;;;;;;;30.22;30.13;96669.75;5115791;28;20047;-74
2021/06/15 10:35:50;;;;;;;1.50;0.80;;;;;;;30.50;29.94;96672.56;5116475;28;20044;-74
2021/06/15 10:38:40;;;;;;;1.38;0.80;;;;;;;30.81;30.57;96673.84;5116354;28;20056;-74
2021/06/15 10:41:08;;;;;;;1.60;0.80;;;;;;;31.02;30.21;96665.53;5116478;28;20046;-74
2021/06/15 10:43:37;;;;;;;0.93;0.70;;;;;;;31.15;30.26;96664.34;5115717;28;20043;-75
2021/06/15 10:46:24;;;;;;;0.60;0.60;;;;;;;31.18;29.69;96660.91;5115459;28;20472;-74
2021/06/15 10:49:14;;;;;;;2.38;0.73;;;;;;;31.24;29.75;96662.25;5116363;28;20039;-74
2021/06/15 10:51:51;;;;;;;0.77;0.75;;;;;;;31.26;30.16;96661.91;5116805;28;20044;-74
2021/06/15 10:54:28;;;;;;;1.67;1.00;;;;;;;31.24;28.27;96648.69;5116157;28;20027;-74
2021/06/15 10:57:13;;;;;;;1.48;1.00;;;;;;;31.11;29.86;96658.03;5116130;28;20054;-74
2021/06/15 11:00:04;;;;;;;1.70;0.80;;;;;;;31.13;30.39;96661.97;5115961;28;20024;-74
2021/06/15 11:02:32;;;;;;;0.70;0.70;;;;;;;31.18;29.98;96658.22;5115637;28;20036;-74
2021/06/15 11:05:44;;;;;;;1.42;0.73;;;;;;;31.25;30.28;96657.63;5115977;28;20051;-74
2021/06/15 11:08:20;;;;;;;0.95;0.95;;;;;;;31.30;30.96;96652.72;5112477;28;20039;-74
2021/06/15 11:11:15;;;;;;;1.63;0.80;;;;;;;31.08;29.77;96647.88;5114619;28;20032;-74
2021/06/15 11:13:44;;;;;;;1.35;0.95;;;;;;;30.90;30.84;96656.31;5113883;28;20043;-74
2021/06/15 11:16:42;;;;;;;1.00;0.90;;;;;;;30.95;31.64;96658.78;5116142;28;20032;-74
2021/06/15 11:19:14;;;;;;;0.90;0.85;;;;;;;31.02;31.55;96663.63;5104712;28;20058;-75
2021/06/15 11:22:08;;;;;;;1.00;0.90;;;;;;;30.80;29.67;96653.28;5115537;28;20403;-74
2021/06/15 11:24:38;;;;;;;1.73;0.95;;;;;;;30.62;31.13;96669.03;5101786;28;20049;-74
2021/06/15 11:27:19;;;;;;;1.20;1.10;;;;;;;30.60;30.80;96663.97;5115627;28;20031;-74
2021/06/15 11:29:48;;;;;;;0.90;0.90;;;;;;;30.57;31.03;96659.22;5115100;28;20040;-73
2021/06/15 11:32:17;;;;;;;1.45;0.90;;;;;;;30.45;31.30;96665.47;5114497;28;20054;-73
2021/06/15 11:34:55;;;;;;;3.30;1.15;;;;;;;30.36;31.21;96664.81;5115672;28;20070;-73
2021/06/15 11:37:24;;;;;;;2.05;0.90;;;;;;;30.42;31.67;96665.38;5115149;28;20043;-73
2021/06/15 11:39:52;;;;;;;1.25;1.02;;;;;;;30.47;31.88;96665.13;5114446;28;20043;-74
2021/06/15 11:42:30;;;;;;;1.27;0.93;;;;;;;30.54;31.94;96655.28;5115168;28;20038;-74
2021/06/15 11:45:12;;;;;;;1.02;0.68;;;;;;;30.72;31.26;96660.41;5115612;28;20145;-73
2021/06/15 11:47:41;;;;;;;1.33;1.00;;;;;;;30.83;31.29;96653.41;5107595;28;20376;-73
2021/06/15 11:50:07;;;;;;;0.80;0.80;;;;;;;30.90;31.78;96650.91;5113817;28;20031;-73
2021/06/15 11:52:34;;;;;;;1.00;0.93;;;;;;;30.95;31.59;96642.53;5115130;28;20046;-73
2021/06/15 11:55:02;;;;;;;2.88;1.00;;;;;;;31.02;31.47;96649.28;5113539;28;20039;-73